createdAt,value
2018-07-21T00:00:57.059Z,99.90
2018-07-21T00:03:25.287Z,99.90
2018-07-21T00:05:53.507Z,99.90
2018-07-21T00:08:21.739Z,99.90
2018-07-21T00:10:49.967Z,99.90
2018-07-21T00:13:18.180Z,99.90
2018-07-21T00:15:46.409Z,99.90
2018-07-21T00:18:14.628Z,99.90
2018-07-21T00:20:42.856Z,99.90
2018-07-21T00:23:11.083Z,99.90
2018-07-21T00:25:39.309Z,99.90
2018-07-21T00:28:07.561Z,99.90
2018-07-21T00:30:35.774Z,99.90
2018-07-21T00:33:03.994Z,99.90
2018-07-21T00:35:32.203Z,99.90
2018-07-21T00:38:00.411Z,99.90
2018-07-21T00:40:28.801Z,99.90
2018-07-21T00:42:57.016Z,99.90
2018-07-21T00:45:25.237Z,99.90
2018-07-21T00:47:53.470Z,99.90
2018-07-21T00:50:21.721Z,99.90
2018-07-21T00:52:49.941Z,99.90
2018-07-21T00:55:18.138Z,99.90
2018-07-21T00:57:46.377Z,99.90
2018-07-21T01:00:14.604Z,99.90
2018-07-21T01:02:42.812Z,99.90
2018-07-21T01:05:11.027Z,99.90
2018-07-21T01:07:39.231Z,99.90
2018-07-21T01:10:07.787Z,99.90
2018-07-21T01:12:36.501Z,99.90
2018-07-21T01:15:05.868Z,99.90
2018-07-21T01:17:34.089Z,99.90
2018-07-21T01:20:02.356Z,99.90
2018-07-21T01:22:30.592Z,99.90
2018-07-21T01:24:58.832Z,99.90
2018-07-21T01:27:27.074Z,99.90
2018-07-21T01:29:55.294Z,99.90
2018-07-21T01:32:23.666Z,99.90
2018-07-21T01:34:51.881Z,99.90
2018-07-21T01:37:20.111Z,99.90
2018-07-21T01:39:48.339Z,99.90
2018-07-21T01:42:16.529Z,99.90
2018-07-21T01:44:44.775Z,99.90
2018-07-21T01:47:13.086Z,99.90
2018-07-21T01:49:41.386Z,99.90
2018-07-21T01:55:20.274Z,99.90
2018-07-21T01:57:48.716Z,99.90
2018-07-21T02:00:17.072Z,99.90
2018-07-21T02:02:45.456Z,99.90
2018-07-21T02:05:13.885Z,99.90
2018-07-21T02:07:42.327Z,99.90
2018-07-21T02:10:10.813Z,99.90
2018-07-21T02:12:39.233Z,99.90
2018-07-21T02:15:07.706Z,99.90
2018-07-21T02:17:36.195Z,99.90
2018-07-21T02:20:04.669Z,99.90
2018-07-21T02:22:33.035Z,99.90
2018-07-21T02:25:01.504Z,99.90
2018-07-21T02:27:29.819Z,99.90
2018-07-21T02:29:58.224Z,99.90
2018-07-21T02:32:26.591Z,99.90
2018-07-21T02:34:55.169Z,99.90
2018-07-21T02:37:23.584Z,99.90
2018-07-21T02:39:51.991Z,99.90
2018-07-21T02:42:20.359Z,99.90
2018-07-21T02:44:48.765Z,99.90
2018-07-21T02:47:17.091Z,99.90
2018-07-21T02:49:45.407Z,99.90
2018-07-21T02:52:13.657Z,99.90
2018-07-21T02:54:42.194Z,99.90
2018-07-21T02:57:10.531Z,99.90
2018-07-21T02:59:38.912Z,99.90
2018-07-21T03:02:07.240Z,99.90
2018-07-21T03:04:35.484Z,99.90
2018-07-21T03:09:38.329Z,99.90
2018-07-21T03:12:06.305Z,99.90
2018-07-21T03:14:34.563Z,99.90
2018-07-21T03:17:02.765Z,99.90
2018-07-21T03:19:30.970Z,99.90
2018-07-21T03:21:59.151Z,99.90
2018-07-21T03:24:27.361Z,99.90
2018-07-21T03:26:55.595Z,99.90
2018-07-21T03:29:23.811Z,99.90
2018-07-21T03:31:52.036Z,99.90
2018-07-21T03:34:20.281Z,99.90
2018-07-21T03:36:48.466Z,99.90
2018-07-21T03:39:16.648Z,99.90
2018-07-21T03:41:44.826Z,99.90
2018-07-21T03:44:13.020Z,99.90
2018-07-21T03:46:41.219Z,99.90
2018-07-21T03:49:09.455Z,99.90
2018-07-21T03:51:37.637Z,99.90
2018-07-21T03:54:05.856Z,99.90
2018-07-21T03:56:34.111Z,99.90
2018-07-21T03:59:02.317Z,99.90
2018-07-21T04:01:30.532Z,99.90
2018-07-21T04:03:58.740Z,99.90
2018-07-21T04:06:27.001Z,99.90
2018-07-21T04:08:55.201Z,99.90
2018-07-21T04:11:23.364Z,99.90
2018-07-21T04:13:51.582Z,99.90
2018-07-21T04:16:19.845Z,99.90
2018-07-21T04:18:48.036Z,99.90
2018-07-21T04:21:16.272Z,99.90
2018-07-21T04:23:44.522Z,99.90
2018-07-21T04:26:12.852Z,99.90
2018-07-21T04:28:41.050Z,99.90
2018-07-21T04:31:09.249Z,99.90
2018-07-21T04:33:37.514Z,99.90
2018-07-21T04:36:05.907Z,99.90
2018-07-21T04:38:34.168Z,99.90
2018-07-21T04:41:02.424Z,99.90
2018-07-21T04:43:30.734Z,99.90
2018-07-21T04:45:59.184Z,99.90
2018-07-21T04:48:27.367Z,99.90
2018-07-21T04:50:55.644Z,99.90
2018-07-21T04:53:23.948Z,99.90
2018-07-21T04:55:52.195Z,99.90
2018-07-21T04:58:20.400Z,99.90
2018-07-21T05:00:48.690Z,99.90
2018-07-21T05:03:17.494Z,99.90
2018-07-21T05:05:45.703Z,99.90
2018-07-21T05:08:13.923Z,99.90
2018-07-21T05:10:42.111Z,99.90
2018-07-21T05:13:11.514Z,99.90
2018-07-21T05:15:39.756Z,99.90
2018-07-21T05:18:08.117Z,99.90
2018-07-21T05:20:36.312Z,99.90
2018-07-21T05:23:04.562Z,99.90
2018-07-21T05:25:32.827Z,99.90
2018-07-21T05:28:01.032Z,99.90
2018-07-21T05:30:29.463Z,99.90
2018-07-21T05:32:57.684Z,99.90
2018-07-21T05:35:26.007Z,99.90
2018-07-21T05:37:54.431Z,99.90
2018-07-21T05:40:22.732Z,99.90
2018-07-21T05:42:50.963Z,99.90
2018-07-21T05:45:19.176Z,99.90
2018-07-21T05:47:47.362Z,99.90
2018-07-21T05:50:15.589Z,99.90
2018-07-21T05:52:43.783Z,99.90
2018-07-21T05:55:11.950Z,99.90
2018-07-21T05:57:40.167Z,99.90
2018-07-21T06:00:10.407Z,99.90
2018-07-21T06:02:38.654Z,99.90
2018-07-21T06:05:07.060Z,99.90
2018-07-21T06:07:35.238Z,99.90
2018-07-21T06:10:03.472Z,99.90
2018-07-21T06:12:31.656Z,99.90
2018-07-21T06:14:59.831Z,99.90
2018-07-21T06:17:28.027Z,99.90
2018-07-21T06:19:56.187Z,99.90
2018-07-21T06:22:24.398Z,99.90
2018-07-21T06:24:52.572Z,99.90
2018-07-21T06:27:20.732Z,99.90
2018-07-21T06:29:48.905Z,99.90
2018-07-21T06:32:17.058Z,99.90
2018-07-21T06:34:45.245Z,99.90
2018-07-21T06:37:13.407Z,99.90
2018-07-21T06:39:41.591Z,99.90
2018-07-21T06:42:09.777Z,99.90
2018-07-21T06:44:38.003Z,99.90
2018-07-21T06:47:06.291Z,99.90
2018-07-21T06:49:34.482Z,99.90
2018-07-21T06:52:02.660Z,99.90
2018-07-21T06:54:30.876Z,99.90
2018-07-21T06:56:59.031Z,99.90
2018-07-21T06:59:28.877Z,99.90
2018-07-21T07:01:57.167Z,99.90
2018-07-21T07:04:25.371Z,99.90
2018-07-21T07:06:53.559Z,99.90
2018-07-21T07:09:21.840Z,99.90
2018-07-21T07:11:49.992Z,99.90
2018-07-21T07:14:18.355Z,99.90
2018-07-21T07:16:46.535Z,99.90
2018-07-21T07:19:14.715Z,99.90
2018-07-21T07:21:42.887Z,99.90
2018-07-21T07:24:11.091Z,99.90
2018-07-21T07:26:39.253Z,99.90
2018-07-21T07:29:07.438Z,99.90
2018-07-21T07:31:38.089Z,99.90
2018-07-21T07:34:06.331Z,99.90
2018-07-21T07:36:34.507Z,99.90
2018-07-21T07:39:02.711Z,99.90
2018-07-21T07:41:30.882Z,99.90
2018-07-21T07:43:59.052Z,99.90
2018-07-21T07:46:27.240Z,99.80
2018-07-21T07:48:55.419Z,99.40
2018-07-21T07:51:23.614Z,98.70
2018-07-21T07:53:51.799Z,98.50
2018-07-21T07:56:19.960Z,97.70
2018-07-21T07:58:48.135Z,97.40
2018-07-21T08:01:16.433Z,97.00
2018-07-21T08:03:44.663Z,96.40
2018-07-21T08:06:12.831Z,96.40
2018-07-21T08:08:41.063Z,96.70
2018-07-21T08:11:09.347Z,97.10
2018-07-21T08:13:37.589Z,97.50
2018-07-21T08:16:05.749Z,97.60
2018-07-21T08:18:33.940Z,97.20
2018-07-21T08:21:02.132Z,96.80
2018-07-21T08:23:30.346Z,97.00
2018-07-21T08:25:58.536Z,97.40
2018-07-21T08:28:26.844Z,98.20
2018-07-21T08:30:55.008Z,98.90
2018-07-21T08:33:23.202Z,99.60
2018-07-21T08:35:51.525Z,99.90
2018-07-21T08:38:19.676Z,99.90
2018-07-21T08:40:47.983Z,99.90
2018-07-21T08:43:16.176Z,99.90
2018-07-21T08:45:44.370Z,99.90
2018-07-21T08:48:12.576Z,99.90
2018-07-21T08:50:40.716Z,99.90
2018-07-21T08:53:09.608Z,99.90
2018-07-21T08:55:38.456Z,99.90
2018-07-21T08:58:06.685Z,99.40
2018-07-21T09:00:35.250Z,99.20
2018-07-21T09:03:04.088Z,98.40
2018-07-21T09:05:32.847Z,98.10
2018-07-21T09:08:01.243Z,98.10
2018-07-21T09:10:29.880Z,97.50
2018-07-21T09:12:58.061Z,97.40
2018-07-21T09:15:26.219Z,97.70
2018-07-21T09:17:54.627Z,96.50
2018-07-21T09:20:22.882Z,96.00
2018-07-21T09:22:51.807Z,96.60
2018-07-21T09:25:19.998Z,95.80
2018-07-21T09:27:48.204Z,95.70
2018-07-21T09:30:17.855Z,95.60
2018-07-21T09:32:46.232Z,95.30
2018-07-21T09:35:14.455Z,95.30
2018-07-21T09:37:42.631Z,95.90
2018-07-21T09:40:10.811Z,96.10
2018-07-21T09:42:39.375Z,96.10
2018-07-21T09:45:07.530Z,95.80
2018-07-21T09:47:35.759Z,95.30
2018-07-21T09:50:04.365Z,95.10
2018-07-21T09:52:32.517Z,95.00
2018-07-21T09:55:00.950Z,94.60
2018-07-21T09:57:29.136Z,94.80
2018-07-21T09:59:57.330Z,94.50
2018-07-21T10:02:25.742Z,93.90
2018-07-21T10:04:54.267Z,93.90
2018-07-21T10:07:22.430Z,93.40
2018-07-21T10:09:50.583Z,93.20
2018-07-21T10:12:18.820Z,92.30
2018-07-21T10:14:47.296Z,92.00
2018-07-21T10:17:15.758Z,92.10
2018-07-21T10:19:43.979Z,91.80
2018-07-21T10:22:12.208Z,91.80
2018-07-21T10:24:45.756Z,91.90
2018-07-21T10:27:15.078Z,91.60
2018-07-21T10:29:43.318Z,91.40
2018-07-21T10:32:11.717Z,90.70
2018-07-21T10:34:39.904Z,90.80
2018-07-21T10:37:08.067Z,91.40
2018-07-21T10:39:36.331Z,91.60
2018-07-21T10:42:04.491Z,91.50
2018-07-21T10:44:32.728Z,91.80
2018-07-21T10:47:00.839Z,91.40
2018-07-21T10:49:29.028Z,91.70
2018-07-21T10:51:57.222Z,92.40
2018-07-21T10:54:25.536Z,92.80
2018-07-21T10:56:53.780Z,93.20
2018-07-21T10:59:22.191Z,93.70
2018-07-21T11:01:50.346Z,93.90
2018-07-21T11:04:18.595Z,94.60
2018-07-21T11:06:46.780Z,95.90
2018-07-21T11:09:14.990Z,96.50
2018-07-21T11:11:43.168Z,97.00
2018-07-21T11:14:11.351Z,98.40
2018-07-21T11:16:39.531Z,99.90
2018-07-21T11:19:07.725Z,99.90
2018-07-21T11:21:35.948Z,99.90
2018-07-21T11:24:04.138Z,99.90
2018-07-21T11:26:32.424Z,99.90
2018-07-21T11:29:00.723Z,99.90
2018-07-21T11:31:28.930Z,99.90
2018-07-21T11:33:57.152Z,99.90
2018-07-21T11:36:25.605Z,99.90
2018-07-21T11:38:53.862Z,99.90
2018-07-21T11:41:22.056Z,99.90
2018-07-21T11:43:50.226Z,99.90
2018-07-21T11:46:18.419Z,99.90
2018-07-21T11:48:46.712Z,99.90
2018-07-21T11:51:15.053Z,99.90
2018-07-21T11:53:43.275Z,99.90
2018-07-21T11:56:11.504Z,99.90
2018-07-21T11:58:39.933Z,99.40
2018-07-21T12:01:08.367Z,99.40
2018-07-21T12:03:36.635Z,98.00
2018-07-21T12:06:05.514Z,96.90
2018-07-21T12:08:33.704Z,97.10
2018-07-21T12:11:01.866Z,96.20
2018-07-21T12:13:30.153Z,95.40
2018-07-21T12:15:58.284Z,93.30
2018-07-21T12:18:26.459Z,91.70
2018-07-21T12:20:54.619Z,91.30
2018-07-21T12:23:22.776Z,91.60
2018-07-21T12:25:50.983Z,90.60
2018-07-21T12:28:19.164Z,87.60
2018-07-21T12:30:47.359Z,87.20
2018-07-21T12:33:15.659Z,86.20
2018-07-21T12:35:43.833Z,85.30
2018-07-21T12:38:12.086Z,84.90
2018-07-21T12:40:40.240Z,85.80
2018-07-21T12:43:08.638Z,84.60
2018-07-21T12:45:36.813Z,83.10
2018-07-21T12:48:05.009Z,82.50
2018-07-21T12:50:33.257Z,82.90
2018-07-21T12:53:01.578Z,84.50
2018-07-21T12:55:29.796Z,84.60
2018-07-21T12:57:57.972Z,84.70
2018-07-21T13:00:26.118Z,83.90
2018-07-21T13:02:54.419Z,86.50
2018-07-21T13:05:22.626Z,86.60
2018-07-21T13:07:50.784Z,88.00
2018-07-21T13:10:18.987Z,89.00
2018-07-21T13:12:47.152Z,88.90
2018-07-21T13:15:15.337Z,90.00
2018-07-21T13:17:43.522Z,88.90
2018-07-21T13:20:11.687Z,86.90
2018-07-21T13:22:39.857Z,86.70
2018-07-21T13:25:08.024Z,85.70
2018-07-21T13:27:36.227Z,86.40
2018-07-21T13:30:05.615Z,85.60
2018-07-21T13:32:33.817Z,84.60
2018-07-21T13:35:01.980Z,84.70
2018-07-21T13:37:30.147Z,86.00
2018-07-21T13:39:58.374Z,87.00
2018-07-21T13:42:26.573Z,88.10
2018-07-21T13:44:54.780Z,90.40
2018-07-21T13:47:22.981Z,91.20
2018-07-21T13:49:51.160Z,91.60
2018-07-21T13:52:19.412Z,92.40
2018-07-21T13:54:47.642Z,94.00
2018-07-21T13:57:15.842Z,93.90
2018-07-21T13:59:44.007Z,93.70
2018-07-21T14:02:12.248Z,94.90
2018-07-21T14:04:40.481Z,94.40
2018-07-21T14:07:08.635Z,94.80
2018-07-21T14:09:36.817Z,94.20
2018-07-21T14:12:05.041Z,91.90
2018-07-21T14:14:33.202Z,91.70
2018-07-21T14:17:01.407Z,92.10
2018-07-21T14:19:32.950Z,92.30
2018-07-21T14:22:01.210Z,92.50
2018-07-21T14:24:29.387Z,92.40
2018-07-21T14:26:57.571Z,92.00
2018-07-21T14:29:25.727Z,92.60
2018-07-21T14:31:54.111Z,93.00
2018-07-21T14:34:22.267Z,93.40
2018-07-21T14:36:50.432Z,93.90
2018-07-21T14:39:18.621Z,94.10
2018-07-21T14:41:46.809Z,94.10
2018-07-21T14:44:14.947Z,93.20
2018-07-21T14:46:43.113Z,92.20
2018-07-21T14:49:11.304Z,91.70
2018-07-21T14:51:39.493Z,91.70
2018-07-21T14:54:07.680Z,91.80
2018-07-21T14:56:35.855Z,91.70
2018-07-21T14:59:04.074Z,91.40
2018-07-21T15:01:32.253Z,91.60
2018-07-21T15:04:00.400Z,91.20
2018-07-21T15:06:28.547Z,91.40
2018-07-21T15:08:56.703Z,91.70
2018-07-21T15:11:24.930Z,92.80
2018-07-21T15:13:53.123Z,93.00
2018-07-21T15:16:21.283Z,94.00
2018-07-21T15:18:49.453Z,94.90
2018-07-21T15:21:17.602Z,95.50
2018-07-21T15:23:45.766Z,96.00
2018-07-21T15:26:14.204Z,96.10
2018-07-21T15:28:42.355Z,96.30
2018-07-21T15:31:10.520Z,96.60
2018-07-21T15:33:38.696Z,96.50
2018-07-21T15:36:06.855Z,96.10
2018-07-21T15:38:35.134Z,96.20
2018-07-21T15:41:03.289Z,96.30
2018-07-21T15:43:31.452Z,96.50
2018-07-21T15:45:59.619Z,96.20
2018-07-21T15:48:27.835Z,95.70
2018-07-21T15:50:56.000Z,95.00
2018-07-21T15:53:24.177Z,95.90
2018-07-21T15:55:52.366Z,96.80
2018-07-21T15:58:20.505Z,96.70
2018-07-21T16:00:48.680Z,97.30
2018-07-21T16:03:16.844Z,98.10
2018-07-21T16:05:45.075Z,98.70
2018-07-21T16:08:13.564Z,99.10
2018-07-21T16:10:41.730Z,99.60
2018-07-21T16:13:09.940Z,99.70
2018-07-21T16:15:38.123Z,99.90
2018-07-21T16:18:06.301Z,99.90
2018-07-21T16:20:34.453Z,99.90
2018-07-21T16:23:02.781Z,99.90
2018-07-21T16:25:30.931Z,99.90
2018-07-21T16:27:59.255Z,99.90
2018-07-21T16:30:27.352Z,99.90
2018-07-21T16:32:55.601Z,99.90
2018-07-21T16:35:23.984Z,99.90
2018-07-21T16:37:52.169Z,99.90
2018-07-21T16:40:20.427Z,99.90
2018-07-21T16:42:48.555Z,99.90
2018-07-21T16:45:16.729Z,99.90
2018-07-21T16:47:45.143Z,99.90
2018-07-21T16:50:13.762Z,99.90
2018-07-21T16:52:41.990Z,99.90
2018-07-21T16:55:10.132Z,99.90
2018-07-21T16:57:38.333Z,99.90
2018-07-21T17:00:06.540Z,99.90
2018-07-21T17:02:34.736Z,99.90
2018-07-21T17:05:02.977Z,99.90
2018-07-21T17:07:31.135Z,99.90
2018-07-21T17:09:59.305Z,99.90
2018-07-21T17:12:27.464Z,99.90
2018-07-21T17:14:55.628Z,99.90
2018-07-21T17:17:23.863Z,99.90
2018-07-21T17:19:52.125Z,99.90
2018-07-21T17:22:20.323Z,99.90
2018-07-21T17:24:48.544Z,99.90
2018-07-21T17:27:16.756Z,99.90
2018-07-21T17:29:44.917Z,99.90
2018-07-21T17:32:13.527Z,99.90
2018-07-21T17:34:41.800Z,99.90
2018-07-21T17:37:10.006Z,99.90
2018-07-21T17:39:38.390Z,99.90
2018-07-21T17:42:06.573Z,99.90
2018-07-21T17:44:34.729Z,99.90
2018-07-21T17:47:02.899Z,99.90
2018-07-21T17:49:31.043Z,99.90
2018-07-21T17:51:59.220Z,99.90
2018-07-21T17:54:27.676Z,99.90
2018-07-21T17:56:55.952Z,99.90
2018-07-21T17:59:24.113Z,99.90
2018-07-21T18:01:53.340Z,99.90
2018-07-21T18:04:21.506Z,99.90
2018-07-21T18:06:49.672Z,99.90
2018-07-21T18:09:17.830Z,99.90
2018-07-21T18:11:46.370Z,99.90
2018-07-21T18:14:14.686Z,99.90
2018-07-21T18:16:42.819Z,99.90
2018-07-21T18:19:11.048Z,99.90
2018-07-21T18:21:39.300Z,99.90
2018-07-21T18:24:07.520Z,99.90
2018-07-21T18:26:35.760Z,99.90
2018-07-21T18:29:04.044Z,99.90
2018-07-21T18:31:32.225Z,99.90
2018-07-21T18:34:00.386Z,99.90
2018-07-21T18:36:28.577Z,99.90
2018-07-21T18:38:56.728Z,99.90
2018-07-21T18:41:24.906Z,99.90
2018-07-21T18:43:53.087Z,99.90
2018-07-21T18:46:21.318Z,99.90
2018-07-21T18:48:49.566Z,99.90
2018-07-21T18:51:17.726Z,99.90
2018-07-21T18:53:45.879Z,99.90
2018-07-21T18:56:14.042Z,99.90
2018-07-21T18:58:42.469Z,99.90
2018-07-21T19:01:10.630Z,99.90
2018-07-21T19:03:38.838Z,99.90
2018-07-21T19:06:07.115Z,99.90
2018-07-21T19:08:40.528Z,99.90
2018-07-21T19:11:08.683Z,99.90
2018-07-21T19:13:36.896Z,99.90
2018-07-21T19:16:10.530Z,99.90
2018-07-21T19:18:38.709Z,99.90
2018-07-21T19:21:12.337Z,99.90
2018-07-21T19:23:40.485Z,99.90
2018-07-21T19:26:14.168Z,99.90
2018-07-21T19:28:42.331Z,99.90
2018-07-21T19:31:10.493Z,99.90
2018-07-21T19:33:38.634Z,99.90
2018-07-21T19:36:06.810Z,99.90
2018-07-21T19:38:35.019Z,99.90
2018-07-21T19:41:08.487Z,99.90
2018-07-21T19:43:36.994Z,99.90
2018-07-21T19:46:05.447Z,99.90
2018-07-21T19:48:33.743Z,99.90
2018-07-21T19:51:01.939Z,99.90
2018-07-21T19:53:30.290Z,99.90
2018-07-21T19:55:58.454Z,99.90
2018-07-21T19:58:26.637Z,99.90
2018-07-21T20:00:54.881Z,99.90
2018-07-21T20:03:23.053Z,99.90
2018-07-21T20:05:51.245Z,99.90
2018-07-21T20:08:19.467Z,99.90
2018-07-21T20:10:47.763Z,99.90
2018-07-21T20:13:15.983Z,99.90
2018-07-21T20:15:44.136Z,99.90
2018-07-21T20:18:12.342Z,99.90
2018-07-21T20:20:40.512Z,99.90
2018-07-21T20:23:08.668Z,99.90
2018-07-21T20:25:36.963Z,99.90
2018-07-21T20:28:05.202Z,99.90
2018-07-21T20:30:33.474Z,99.90
2018-07-21T20:33:01.755Z,99.90
2018-07-21T20:35:30.067Z,99.90
2018-07-21T20:37:58.604Z,99.90
2018-07-21T20:40:26.843Z,99.90
2018-07-21T20:42:55.134Z,99.90
2018-07-21T20:45:23.284Z,99.90
2018-07-21T20:47:51.547Z,99.90
2018-07-21T20:50:19.743Z,99.90
2018-07-21T20:52:47.912Z,99.90
2018-07-21T20:55:16.130Z,99.90
2018-07-21T20:57:44.455Z,99.90
2018-07-21T21:00:12.694Z,99.90
2018-07-21T21:02:40.832Z,99.90
2018-07-21T21:05:09.212Z,99.90
2018-07-21T21:07:37.372Z,99.90
2018-07-21T21:10:05.870Z,99.90
2018-07-21T21:12:34.199Z,99.90
2018-07-21T21:15:02.320Z,99.90
2018-07-21T21:17:30.461Z,99.90
2018-07-21T21:19:58.627Z,99.90
2018-07-21T21:22:26.844Z,99.90
2018-07-21T21:24:55.163Z,99.90
2018-07-21T21:27:23.354Z,99.90
2018-07-21T21:29:51.528Z,99.90
2018-07-21T21:32:19.702Z,99.90
2018-07-21T21:34:47.859Z,99.90
2018-07-21T21:37:16.031Z,99.90
2018-07-21T21:39:44.188Z,99.90
2018-07-21T21:42:12.414Z,99.90
2018-07-21T21:44:40.557Z,99.90
2018-07-21T21:47:08.889Z,99.90
2018-07-21T21:49:37.081Z,99.90
2018-07-21T21:52:05.327Z,99.90
2018-07-21T21:54:33.530Z,99.90
2018-07-21T21:57:01.751Z,99.90
2018-07-21T21:59:29.915Z,99.90
2018-07-21T22:01:58.143Z,99.90
2018-07-21T22:04:26.566Z,99.90
2018-07-21T22:06:54.751Z,99.90
2018-07-21T22:09:22.918Z,99.90
2018-07-21T22:11:51.080Z,99.90
2018-07-21T22:14:19.290Z,99.90
2018-07-21T22:16:47.435Z,99.90
2018-07-21T22:19:15.601Z,99.90
2018-07-21T22:21:43.762Z,99.90
2018-07-21T22:24:11.950Z,99.90
2018-07-21T22:26:40.095Z,99.90
2018-07-21T22:29:08.295Z,99.90
2018-07-21T22:31:36.431Z,99.90
2018-07-21T22:34:04.612Z,99.90
2018-07-21T22:36:32.780Z,99.90
2018-07-21T22:39:00.968Z,99.90
2018-07-21T22:41:29.132Z,99.90
2018-07-21T22:43:57.286Z,99.90
2018-07-21T22:46:25.484Z,99.90
2018-07-21T22:48:53.637Z,99.90
2018-07-21T22:51:21.976Z,99.90
2018-07-21T22:53:50.224Z,99.90
2018-07-21T22:56:18.388Z,99.90
2018-07-21T22:58:46.576Z,99.90
2018-07-21T23:01:14.833Z,99.90
2018-07-21T23:03:42.943Z,99.90
2018-07-21T23:06:11.327Z,99.90
2018-07-21T23:08:39.519Z,99.90
2018-07-21T23:11:07.703Z,99.90
2018-07-21T23:13:36.224Z,99.90
2018-07-21T23:16:04.446Z,99.90
2018-07-21T23:18:32.600Z,99.90
2018-07-21T23:21:00.754Z,99.90
2018-07-21T23:23:28.918Z,99.90
2018-07-21T23:25:57.103Z,99.90
2018-07-21T23:28:25.277Z,99.90
2018-07-21T23:30:53.439Z,99.90
2018-07-21T23:33:21.752Z,99.90
2018-07-21T23:35:49.930Z,99.90
2018-07-21T23:38:18.103Z,99.90
2018-07-21T23:40:46.276Z,99.90
2018-07-21T23:43:14.455Z,99.90
2018-07-21T23:45:42.620Z,99.90
2018-07-21T23:48:10.808Z,99.90
2018-07-21T23:50:38.987Z,99.90
2018-07-21T23:53:07.146Z,99.90
2018-07-21T23:55:35.327Z,99.90
2018-07-21T23:58:03.591Z,99.90
